< < Back
Terminal Aerodrome Forecast


Current Version              Previous Versions:   1  2  3  4  5  6  7  8  9  

Terminal Aerodrome Forecast

040
FTUS44 KMOB 290121 AAB
TAFMOB
TAF AMD
KMOB 290121Z 2901/2924 01005KT P6SM -RA VCTS SCT030CB SCT100 BKN200
      TEMPO 2901/2903 VRB15G25KT 2SM TSRA BKN025CB
     FM291200 00000KT P6SM VCSH SCT035 BKN100
     FM291800 04005KT P6SM SCT040 OVC100
      TEMPO 2920/2924 VRB15G25KT 5SM TSRA BKN030CB=

Latest METAR

777
SAUS80 KWBC 291400
MTRMOB
METAR KMOB 291356Z 02003KT 10SM FEW050 BKN150 BKN250 26/23 A3000 RMK AO2
SLP157 T02560228


USA.gov is the U.S. government's official web portal to all federal, state and local government web resources and services.